Time;durP1;ratioP1;P1;durP2;ratioP2;P2;SDS_P1;SDS_P2;PMS_P1;PMS_P2;Temp;Humidity;BMP_temperature;BMP_pressure;BME280_temperature;BME280_humidity;BME280_pressure;Samples;Min_cycle;Max_cycle;Signal;HPM_P1;HPM_P2
2021/10/07 00:01:28;;;;;;;74.40;34.97;;;15.10;99.90;;;;;;5112806;28;20493;-75
2021/10/07 00:03:54;;;;;;;94.90;38.08;;;15.10;99.90;;;;;;5113090;28;20092;-74
2021/10/07 00:06:21;;;;;;;83.53;34.92;;;15.10;99.90;;;;;;5111359;28;20016;-74
2021/10/07 00:08:48;;;;;;;91.93;38.05;;;15.00;99.90;;;;;;5109409;28;20095;-75
2021/10/07 00:11:15;;;;;;;78.82;34.00;;;15.00;99.90;;;;;;5112070;28;20031;-75
2021/10/07 00:13:43;;;;;;;76.00;33.15;;;15.10;99.90;;;;;;5111672;28;20100;-74
2021/10/07 00:16:09;;;;;;;76.47;32.55;;;15.10;99.90;;;;;;5112977;28;20383;-75
2021/10/07 00:18:40;;;;;;;83.25;35.42;;;15.10;99.90;;;;;;5112265;28;20468;-75
2021/10/07 00:21:07;;;;;;;89.68;34.35;;;15.00;99.90;;;;;;5111974;28;20051;-75
2021/10/07 00:23:39;;;;;;;80.78;34.03;;;15.00;99.90;;;;;;5112591;28;20023;-74
2021/10/07 00:26:05;;;;;;;;;;;15.00;99.90;;;;;;5111484;28;20034;-75
2021/10/07 00:28:32;;;;;;;76.68;34.78;;;15.00;99.90;;;;;;5105482;28;19904;-75
2021/10/07 00:31:02;;;;;;;74.90;30.83;;;15.10;99.90;;;;;;5110331;28;20030;-74
2021/10/07 00:33:40;;;;;;;80.90;33.35;;;15.10;99.90;;;;;;5112170;28;20379;-74
2021/10/07 00:36:19;;;;;;;90.70;35.17;;;15.10;99.90;;;;;;5109182;28;20024;-74
2021/10/07 00:39:03;;;;;;;92.13;35.20;;;15.10;99.90;;;;;;5091083;28;20024;-74
2021/10/07 00:41:30;;;;;;;83.45;34.78;;;15.10;99.90;;;;;;5111045;28;20020;-74
2021/10/07 00:44:05;;;;;;;79.55;33.03;;;15.20;99.90;;;;;;5095581;28;20063;-74
2021/10/07 00:46:31;;;;;;;93.45;37.80;;;15.20;99.90;;;;;;5111866;28;20019;-75
2021/10/07 00:48:59;;;;;;;78.78;35.20;;;15.20;99.90;;;;;;5109221;28;20447;-74
2021/10/07 00:51:26;;;;;;;79.03;33.55;;;15.20;99.90;;;;;;5111236;28;20388;-75
2021/10/07 00:53:53;;;;;;;84.32;35.60;;;15.10;99.90;;;;;;5112132;28;20065;-74
2021/10/07 00:56:19;;;;;;;60.17;27.60;;;15.10;99.90;;;;;;5111806;28;20371;-74
2021/10/07 00:58:47;;;;;;;59.13;29.88;;;15.10;99.90;;;;;;5111154;28;20027;-75
2021/10/07 01:01:12;;;;;;;62.20;27.27;;;15.00;99.90;;;;;;5111577;28;20098;-74
2021/10/07 01:03:38;;;;;;;64.95;31.95;;;15.10;99.90;;;;;;5111589;28;20110;-74
2021/10/07 01:06:04;;;;;;;81.25;34.17;;;15.10;99.90;;;;;;5110165;28;20012;-74
2021/10/07 01:08:29;;;;;;;87.10;35.17;;;15.20;99.90;;;;;;5110701;27;20508;-74
2021/10/07 01:10:55;;;;;;;83.88;35.25;;;15.20;99.90;;;;;;5111108;28;20487;-74
2021/10/07 01:13:21;;;;;;;91.97;35.22;;;15.20;99.90;;;;;;5111288;28;20411;-74
2021/10/07 01:15:47;;;;;;;86.22;33.95;;;15.20;99.90;;;;;;5111725;28;20032;-74
2021/10/07 01:18:12;;;;;;;91.80;37.00;;;15.20;99.90;;;;;;5111296;28;20092;-74
2021/10/07 01:20:38;;;;;;;93.15;36.75;;;15.20;99.90;;;;;;5110691;28;20477;-74
2021/10/07 01:23:04;;;;;;;70.07;32.35;;;15.20;99.90;;;;;;5109191;28;20028;-74
2021/10/07 01:25:36;;;;;;;103.68;36.75;;;15.20;99.90;;;;;;5108699;28;20011;-74
2021/10/07 01:28:02;;;;;;;88.20;35.10;;;15.20;99.90;;;;;;5106499;28;20150;-75
2021/10/07 01:30:27;;;;;;;80.72;34.17;;;15.30;99.90;;;;;;5099241;28;20149;-74
2021/10/07 01:32:57;;;;;;;80.93;34.15;;;15.30;99.90;;;;;;5106747;28;20527;-74
2021/10/07 01:35:23;;;;;;;77.88;32.85;;;15.30;99.90;;;;;;5109024;28;20023;-74
2021/10/07 01:37:49;;;;;;;83.18;33.47;;;15.30;99.90;;;;;;5105801;28;20058;-74
2021/10/07 01:40:14;;;;;;;73.03;33.33;;;15.30;99.90;;;;;;5110693;28;20085;-74
2021/10/07 01:42:42;;;;;;;122.03;39.92;;;15.30;99.90;;;;;;5110756;28;20387;-74
2021/10/07 01:45:09;;;;;;;92.38;35.35;;;15.30;99.90;;;;;;5108927;28;20746;-74
2021/10/07 01:47:35;;;;;;;88.15;36.15;;;15.30;99.90;;;;;;5109873;28;20157;-74
2021/10/07 01:50:00;;;;;;;99.68;37.20;;;15.20;99.90;;;;;;5104018;28;20110;-74
2021/10/07 01:52:26;;;;;;;79.55;35.92;;;15.30;99.90;;;;;;5110817;28;20434;-74
2021/10/07 01:54:52;;;;;;;85.80;35.72;;;15.30;99.90;;;;;;5110698;28;20024;-75
2021/10/07 01:57:17;;;;;;;75.70;34.25;;;15.30;99.90;;;;;;5110788;28;20486;-74
2021/10/07 01:59:43;;;;;;;99.57;39.83;;;15.40;99.90;;;;;;5109895;28;20092;-74
2021/10/07 02:02:09;;;;;;;84.68;37.88;;;15.30;99.90;;;;;;5110206;28;20035;-75
2021/10/07 02:04:34;;;;;;;81.85;36.70;;;15.40;99.90;;;;;;5110360;28;20035;-75
2021/10/07 02:07:00;;;;;;;98.35;36.83;;;15.30;99.90;;;;;;5111675;28;20027;-74
2021/10/07 02:09:26;;;;;;;88.47;37.28;;;15.40;99.90;;;;;;5110013;28;20023;-74
2021/10/07 02:11:51;;;;;;;91.72;37.63;;;15.30;99.90;;;;;;5112021;28;20043;-74
2021/10/07 02:14:17;;;;;;;78.30;35.72;;;15.30;99.90;;;;;;5112258;28;20012;-74
2021/10/07 02:16:43;;;;;;;87.35;36.05;;;15.40;99.90;;;;;;5111614;28;20494;-74
2021/10/07 02:19:08;;;;;;;55.00;27.77;;;15.30;99.90;;;;;;5111145;28;20485;-75
2021/10/07 02:21:34;;;;;;;99.70;38.42;;;15.40;99.90;;;;;;5111317;28;20505;-74
2021/10/07 02:23:59;;;;;;;96.70;38.28;;;15.30;99.90;;;;;;5111494;28;20483;-74
2021/10/07 02:26:25;;;;;;;94.88;38.53;;;15.30;99.90;;;;;;5110674;28;20015;-74
2021/10/07 02:28:51;;;;;;;76.72;33.03;;;15.40;99.90;;;;;;5111500;28;20437;-74
2021/10/07 02:31:16;;;;;;;101.22;34.72;;;15.30;99.90;;;;;;5112277;28;20409;-74
2021/10/07 02:33:42;;;;;;;75.18;32.33;;;15.20;99.90;;;;;;5111198;28;20036;-74
2021/10/07 02:36:08;;;;;;;83.70;32.60;;;15.30;99.90;;;;;;5116507;28;20024;-74
2021/10/07 02:38:34;;;;;;;80.38;34.72;;;15.20;99.90;;;;;;5115226;28;20391;-74
2021/10/07 02:41:00;;;;;;;128.98;41.15;;;15.30;99.90;;;;;;5116148;28;20515;-74
2021/10/07 02:43:26;;;;;;;85.53;33.90;;;15.30;99.90;;;;;;5115274;28;20120;-74
2021/10/07 02:45:51;;;;;;;73.07;30.80;;;15.30;99.90;;;;;;5097150;28;20030;-75
2021/10/07 02:48:17;;;;;;;89.05;33.75;;;15.30;99.90;;;;;;5115711;28;20024;-75
2021/10/07 02:50:43;;;;;;;76.90;32.38;;;15.30;99.90;;;;;;5115336;28;20395;-74
2021/10/07 02:53:08;;;;;;;79.00;31.52;;;15.30;99.90;;;;;;5115696;28;20482;-74
2021/10/07 02:55:34;;;;;;;79.32;31.85;;;15.30;99.90;;;;;;5112385;28;20016;-74
2021/10/07 02:58:00;;;;;;;68.88;31.25;;;15.30;99.90;;;;;;5115784;28;20034;-74
2021/10/07 03:00:25;;;;;;;84.35;34.78;;;15.30;99.90;;;;;;5115527;28;20506;-74
2021/10/07 03:02:51;;;;;;;70.00;29.15;;;15.30;99.90;;;;;;5107977;28;20123;-75
2021/10/07 03:05:17;;;;;;;80.40;32.45;;;15.30;99.90;;;;;;5113708;28;20016;-74
2021/10/07 03:07:43;;;;;;;79.07;35.17;;;15.30;99.90;;;;;;5114513;28;20031;-75
2021/10/07 03:10:09;;;;;;;69.63;30.88;;;15.30;99.90;;;;;;5115182;28;20383;-74
2021/10/07 03:12:35;;;;;;;73.47;31.02;;;15.20;99.90;;;;;;5115322;28;20040;-74
2021/10/07 03:15:01;;;;;;;70.78;33.38;;;15.30;99.90;;;;;;5115097;28;20096;-75
2021/10/07 03:17:27;;;;;;;83.70;34.72;;;15.20;99.90;;;;;;5113651;28;20460;-75
2021/10/07 03:19:52;;;;;;;65.55;29.45;;;15.30;99.90;;;;;;5115188;28;20015;-75
2021/10/07 03:22:21;;;;;;;72.32;29.58;;;15.30;99.90;;;;;;5114198;28;20027;-74
2021/10/07 03:24:47;;;;;;;75.10;32.85;;;15.20;99.90;;;;;;5121298;27;20039;-75
2021/10/07 03:27:13;;;;;;;55.58;27.40;;;15.20;99.90;;;;;;5119828;27;20067;-75
2021/10/07 03:29:38;;;;;;;62.30;29.33;;;15.30;99.90;;;;;;5120534;27;20123;-74
2021/10/07 03:32:04;;;;;;;59.40;29.40;;;15.30;99.90;;;;;;5120761;27;20039;-74
2021/10/07 03:34:30;;;;;;;57.20;27.70;;;15.30;99.90;;;;;;5119058;27;20031;-74
2021/10/07 03:36:55;;;;;;;67.35;32.40;;;15.30;99.90;;;;;;5122399;27;20026;-74
2021/10/07 03:39:21;;;;;;;57.67;27.88;;;15.30;99.90;;;;;;5119545;27;20585;-74
2021/10/07 03:41:47;;;;;;;53.20;28.95;;;15.30;99.90;;;;;;5129619;27;20429;-74
2021/10/07 03:44:13;;;;;;;67.47;27.85;;;15.20;99.90;;;;;;5124978;27;20464;-74
2021/10/07 03:46:38;;;;;;;60.05;28.00;;;15.30;99.90;;;;;;5102640;28;20521;-75
2021/10/07 03:49:04;;;;;;;64.00;28.70;;;15.30;99.90;;;;;;5113804;28;20076;-75
2021/10/07 03:51:30;;;;;;;62.60;28.00;;;15.30;99.90;;;;;;5114447;28;20042;-75
2021/10/07 03:53:55;;;;;;;60.50;29.65;;;15.30;99.90;;;;;;5114510;28;20027;-75
2021/10/07 03:56:21;;;;;;;75.20;31.63;;;15.30;99.90;;;;;;5115079;28;20048;-74
2021/10/07 03:58:47;;;;;;;66.07;27.17;;;15.30;99.90;;;;;;5112560;28;20519;-74
2021/10/07 04:01:12;;;;;;;66.95;27.95;;;15.40;99.90;;;;;;5111985;28;20085;-74
2021/10/07 04:03:38;;;;;;;52.70;26.10;;;15.30;99.90;;;;;;5113926;28;20031;-75
2021/10/07 04:06:04;;;;;;;55.60;26.75;;;15.40;99.90;;;;;;5114030;28;20069;-75
2021/10/07 04:08:29;;;;;;;63.08;28.10;;;15.40;99.90;;;;;;5112900;28;20024;-74
2021/10/07 04:10:55;;;;;;;53.22;27.17;;;15.40;99.90;;;;;;5114025;28;20024;-74
2021/10/07 04:13:23;;;;;;;60.80;27.13;;;15.40;99.90;;;;;;5114291;28;20432;-74
2021/10/07 04:15:51;;;;;;;66.75;28.23;;;15.40;99.90;;;;;;5113445;28;20390;-74
2021/10/07 04:18:18;;;;;;;77.05;29.92;;;15.30;99.90;;;;;;5096010;28;20023;-74
2021/10/07 04:20:45;;;;;;;91.53;31.05;;;15.30;99.90;;;;;;5113718;28;20024;-74
2021/10/07 04:23:15;;;;;;;65.82;27.45;;;15.30;99.90;;;;;;5114182;28;20027;-74
2021/10/07 04:25:41;;;;;;;62.67;28.25;;;15.30;99.90;;;;;;5102183;28;20061;-74
2021/10/07 04:28:07;;;;;;;111.57;34.45;;;15.30;99.90;;;;;;5113153;28;20047;-74
2021/10/07 04:30:35;;;;;;;69.78;29.15;;;15.30;99.90;;;;;;5096413;28;20480;-74
2021/10/07 04:33:06;;;;;;;78.35;29.75;;;15.30;99.90;;;;;;5107196;28;20383;-74
2021/10/07 04:35:31;;;;;;;73.47;29.65;;;15.30;99.90;;;;;;5113667;28;20020;-75
2021/10/07 04:37:58;;;;;;;75.57;31.70;;;15.30;99.90;;;;;;5113589;28;20439;-74
2021/10/07 04:40:25;;;;;;;74.97;31.15;;;15.40;99.90;;;;;;5113817;28;20019;-74
2021/10/07 04:42:51;;;;;;;92.00;34.47;;;15.40;99.90;;;;;;5113065;28;20487;-74
2021/10/07 04:45:16;;;;;;;68.97;28.27;;;15.40;99.90;;;;;;5111659;28;20027;-74
2021/10/07 04:47:42;;;;;;;73.32;28.88;;;15.30;99.90;;;;;;5113176;28;20024;-74
2021/10/07 04:50:08;;;;;;;79.85;32.72;;;15.30;99.90;;;;;;5113386;28;20099;-74
2021/10/07 04:52:34;;;;;;;74.65;31.13;;;15.30;99.90;;;;;;5113700;28;20089;-74
2021/10/07 04:55:00;;;;;;;65.22;28.75;;;15.40;99.90;;;;;;5111137;28;20186;-74
2021/10/07 04:57:26;;;;;;;74.70;30.95;;;15.30;99.90;;;;;;5112679;28;20012;-74
2021/10/07 04:59:52;;;;;;;86.90;31.70;;;15.40;99.90;;;;;;5110823;28;20034;-74
2021/10/07 05:02:17;;;;;;;84.80;34.13;;;15.40;99.90;;;;;;5113506;28;20027;-74
2021/10/07 05:04:43;;;;;;;80.45;30.30;;;15.40;99.90;;;;;;5112915;28;20524;-74
2021/10/07 05:07:09;;;;;;;69.80;30.83;;;15.40;99.90;;;;;;5111839;28;20016;-74
2021/10/07 05:09:34;;;;;;;73.03;30.27;;;15.40;99.90;;;;;;5111251;28;20092;-74
2021/10/07 05:12:00;;;;;;;70.10;30.35;;;15.40;99.90;;;;;;5113234;28;20065;-74
2021/10/07 05:14:26;;;;;;;63.22;26.92;;;15.50;99.90;;;;;;5113367;28;20504;-74
2021/10/07 05:16:51;;;;;;;74.95;30.05;;;15.40;99.90;;;;;;5113113;28;20076;-74
2021/10/07 05:19:17;;;;;;;80.43;31.85;;;15.30;99.90;;;;;;5112376;28;20464;-74
2021/10/07 05:21:43;;;;;;;88.80;30.75;;;15.40;99.90;;;;;;5113262;28;20031;-74
2021/10/07 05:24:08;;;;;;;91.60;32.85;;;15.40;99.90;;;;;;5110967;28;20027;-74
2021/10/07 05:26:34;;;;;;;74.63;29.92;;;15.40;99.90;;;;;;5112354;28;20387;-74
2021/10/07 05:28:59;;;;;;;98.40;34.92;;;15.40;99.90;;;;;;5111067;28;20371;-74
2021/10/07 05:31:25;;;;;;;75.30;31.50;;;15.50;99.90;;;;;;5111967;28;20508;-74
2021/10/07 05:33:51;;;;;;;70.80;31.83;;;15.40;99.90;;;;;;5105895;28;20472;-74
2021/10/07 05:36:17;;;;;;;72.28;29.08;;;15.50;99.90;;;;;;5112631;28;20020;-74
2021/10/07 05:38:42;;;;;;;85.35;31.15;;;15.50;99.90;;;;;;5112330;28;20119;-74
2021/10/07 05:41:08;;;;;;;83.38;32.17;;;15.50;99.90;;;;;;5111644;28;20026;-74
2021/10/07 05:43:34;;;;;;;73.78;31.02;;;15.50;99.90;;;;;;5112876;28;20034;-75
2021/10/07 05:46:00;;;;;;;81.40;33.03;;;15.50;99.90;;;;;;5094090;28;20050;-74
2021/10/07 05:48:27;;;;;;;69.43;30.55;;;15.50;99.90;;;;;;5111951;28;20444;-74
2021/10/07 05:50:53;;;;;;;69.07;31.25;;;15.50;99.90;;;;;;5112401;28;20030;-74
2021/10/07 05:53:19;;;;;;;67.47;27.63;;;15.50;99.90;;;;;;5094454;28;20063;-74
2021/10/07 05:55:45;;;;;;;69.32;30.35;;;15.50;99.90;;;;;;5112154;28;20114;-73
2021/10/07 05:58:11;;;;;;;65.18;29.52;;;15.50;99.90;;;;;;5112306;28;20488;-75
2021/10/07 06:00:37;;;;;;;56.10;27.65;;;15.50;99.90;;;;;;5110867;28;20029;-74
2021/10/07 06:03:07;;;;;;;81.78;32.60;;;15.40;99.90;;;;;;5112517;28;20524;-74
2021/10/07 06:05:32;;;;;;;55.05;27.73;;;15.40;99.90;;;;;;5111871;28;20019;-74
2021/10/07 06:07:58;;;;;;;82.10;32.60;;;15.50;99.90;;;;;;5111806;28;20034;-74
2021/10/07 06:10:24;;;;;;;52.58;26.20;;;15.40;99.90;;;;;;5111578;28;20471;-74
2021/10/07 06:12:49;;;;;;;60.63;27.73;;;15.40;99.90;;;;;;5109639;28;20035;-74
2021/10/07 06:15:15;;;;;;;81.00;29.52;;;15.20;99.90;;;;;;5110530;28;20348;-75
2021/10/07 06:17:41;;;;;;;84.82;31.48;;;15.30;99.90;;;;;;5089246;28;20179;-75
2021/10/07 06:22:52;;;;;;;58.00;28.27;;;15.20;99.90;;;;;;5111028;28;20070;-74
2021/10/07 06:25:19;;;;;;;54.05;23.10;;;15.20;99.90;;;;;;5114471;28;20062;-74
2021/10/07 06:27:46;;;;;;;52.45;22.52;;;15.30;99.90;;;;;;5111499;28;20030;-74
2021/10/07 06:30:12;;;;;;;56.75;23.30;;;15.20;99.90;;;;;;5109494;28;20027;-74
2021/10/07 06:32:37;;;;;;;52.67;22.23;;;15.20;99.90;;;;;;5106624;28;20036;-74
2021/10/07 06:35:04;;;;;;;47.92;22.05;;;15.30;99.90;;;;;;5111860;28;20039;-74
2021/10/07 06:37:30;;;;;;;48.28;21.55;;;15.30;99.90;;;;;;5111108;28;20110;-74
2021/10/07 06:39:55;;;;;;;50.28;22.58;;;15.30;99.90;;;;;;5111715;28;20067;-74
2021/10/07 06:42:21;;;;;;;52.97;22.48;;;15.40;99.90;;;;;;5112078;28;20020;-74
2021/10/07 06:44:46;;;;;;;46.53;21.08;;;15.30;99.90;;;;;;5110730;28;20034;-74
2021/10/07 06:47:12;;;;;;;49.13;20.17;;;15.30;99.90;;;;;;5108156;28;20035;-74
2021/10/07 06:49:38;;;;;;;41.35;19.13;;;15.40;99.90;;;;;;5111275;28;20429;-74
2021/10/07 06:52:04;;;;;;;53.97;21.35;;;15.40;99.90;;;;;;5111833;28;20425;-74
2021/10/07 06:54:30;;;;;;;48.72;18.33;;;15.40;99.90;;;;;;5111894;28;20473;-74
2021/10/07 06:56:55;;;;;;;52.53;19.73;;;15.30;99.90;;;;;;5111096;28;20383;-74
2021/10/07 06:59:21;;;;;;;73.65;24.70;;;15.10;99.90;;;;;;5109117;28;20034;-74
2021/10/07 07:01:47;;;;;;;67.85;23.67;;;15.10;99.90;;;;;;5110519;28;20114;-74
2021/10/07 07:04:16;;;;;;;83.22;24.90;;;15.10;99.90;;;;;;5111910;28;20111;-74
2021/10/07 07:06:43;;;;;;;68.25;23.52;;;15.10;99.90;;;;;;5109824;28;20019;-74
2021/10/07 07:09:10;;;;;;;56.00;22.10;;;15.10;99.90;;;;;;5109994;28;20156;-74
2021/10/07 07:11:36;;;;;;;56.60;21.02;;;15.20;99.90;;;;;;5111084;28;20395;-74
2021/10/07 07:14:02;;;;;;;49.20;20.65;;;15.30;99.90;;;;;;5109001;28;20023;-74
2021/10/07 07:16:28;;;;;;;52.17;21.98;;;15.30;99.90;;;;;;5092363;28;20024;-74
2021/10/07 07:18:54;;;;;;;55.35;21.40;;;15.20;99.90;;;;;;5114793;28;20027;-74
2021/10/07 07:21:23;;;;;;;60.03;22.35;;;15.30;99.90;;;;;;5115436;28;20103;-74
2021/10/07 07:23:52;;;;;;;48.80;22.15;;;15.40;99.90;;;;;;5114065;28;20088;-74
2021/10/07 07:26:18;;;;;;;49.90;19.95;;;15.40;99.90;;;;;;5114893;28;20024;-74
2021/10/07 07:28:44;;;;;;;51.35;19.98;;;15.50;99.90;;;;;;5113973;28;20078;-74
2021/10/07 07:31:10;;;;;;;44.33;19.15;;;15.40;99.90;;;;;;5114449;28;20498;-75
2021/10/07 07:33:36;;;;;;;50.10;20.70;;;15.40;99.90;;;;;;5102864;28;20031;-75
2021/10/07 07:36:01;;;;;;;59.95;22.45;;;15.50;99.90;;;;;;5112607;28;20096;-74
2021/10/07 07:38:27;;;;;;;64.68;23.05;;;15.40;99.90;;;;;;5106184;27;20510;-74
2021/10/07 07:40:53;;;;;;;68.97;24.75;;;15.40;99.90;;;;;;5112087;28;20088;-74
2021/10/07 07:43:19;;;;;;;52.95;22.13;;;15.50;99.90;;;;;;5113486;28;20387;-74
2021/10/07 07:45:50;;;;;;;43.63;19.40;;;15.40;99.90;;;;;;5112879;28;20031;-74
2021/10/07 07:48:16;;;;;;;57.33;21.00;;;15.50;99.90;;;;;;5111531;28;20023;-74
2021/10/07 07:50:42;;;;;;;41.13;17.08;;;15.40;99.90;;;;;;5111014;28;20483;-74
2021/10/07 07:53:09;;;;;;;37.05;15.95;;;15.50;99.90;;;;;;5114193;28;20379;-74
2021/10/07 07:55:35;;;;;;;36.90;16.60;;;15.50;99.90;;;;;;5114032;27;20027;-74
2021/10/07 07:58:01;;;;;;;35.10;16.52;;;15.50;99.90;;;;;;5113871;27;20026;-74
2021/10/07 08:00:26;;;;;;;40.60;15.75;;;15.50;99.90;;;;;;5114814;27;20118;-74
2021/10/07 08:02:52;;;;;;;50.50;19.08;;;15.50;99.90;;;;;;5117433;27;20053;-74
2021/10/07 08:05:18;;;;;;;44.45;17.77;;;15.40;99.90;;;;;;5115608;27;20026;-74
2021/10/07 08:07:44;;;;;;;41.17;16.65;;;15.50;99.90;;;;;;5115295;27;20019;-74
2021/10/07 08:10:11;;;;;;;38.05;14.77;;;15.60;99.90;;;;;;5114417;27;20047;-74
2021/10/07 08:12:37;;;;;;;29.17;14.82;;;15.60;99.90;;;;;;5118361;27;20450;-74
2021/10/07 08:15:06;;;;;;;37.72;15.68;;;15.70;99.90;;;;;;5110041;27;20115;-74
2021/10/07 08:17:33;;;;;;;40.55;16.92;;;15.70;99.90;;;;;;5114178;27;20479;-74
2021/10/07 08:20:01;;;;;;;42.20;20.80;;;15.70;99.90;;;;;;5113018;27;20012;-74
2021/10/07 08:22:27;;;;;;;34.88;16.25;;;15.60;99.90;;;;;;5097703;28;20483;-74
2021/10/07 08:24:53;;;;;;;42.40;18.08;;;15.50;99.90;;;;;;5121769;27;20036;-74
2021/10/07 08:27:19;;;;;;;40.90;16.55;;;15.60;99.90;;;;;;5114559;27;20193;-73
2021/10/07 08:29:46;;;;;;;37.25;17.05;;;15.70;99.90;;;;;;5114069;27;20026;-74
2021/10/07 08:32:12;;;;;;;41.70;19.95;;;15.60;99.90;;;;;;5109506;27;20092;-74
2021/10/07 08:34:38;;;;;;;41.08;17.63;;;15.60;99.90;;;;;;5118277;27;20441;-74
2021/10/07 08:37:04;;;;;;;49.47;18.65;;;15.60;99.90;;;;;;5108535;27;20024;-74
2021/10/07 08:39:31;;;;;;;39.60;17.48;;;15.70;99.90;;;;;;5096615;27;20020;-74
2021/10/07 08:41:57;;;;;;;37.88;17.17;;;15.70;99.90;;;;;;5096026;28;20159;-74
2021/10/07 08:44:23;;;;;;;37.55;16.98;;;15.70;99.90;;;;;;5114191;27;20712;-74
2021/10/07 08:46:51;;;;;;;40.28;17.35;;;15.70;99.90;;;;;;5119758;27;20027;-74
2021/10/07 08:49:20;;;;;;;39.83;18.58;;;15.70;99.90;;;;;;5110793;27;20482;-74
2021/10/07 08:51:47;;;;;;;34.42;16.38;;;15.70;99.90;;;;;;5106358;27;20035;-74
2021/10/07 08:54:13;;;;;;;41.35;15.80;;;15.80;99.90;;;;;;5119502;27;20552;-74
2021/10/07 08:56:39;;;;;;;42.65;17.85;;;15.90;99.90;;;;;;5106542;27;20024;-75
2021/10/07 08:59:05;;;;;;;33.65;16.30;;;15.90;99.90;;;;;;5110037;28;20069;-74
2021/10/07 09:01:46;;;;;;;34.78;17.52;;;15.90;99.90;;;;;;5109958;28;20432;-74
2021/10/07 09:04:28;;;;;;;33.65;16.25;;;15.90;99.90;;;;;;5112073;27;20023;-74
2021/10/07 09:07:03;;;;;;;35.13;16.93;;;15.90;99.90;;;;;;5110577;28;20050;-74
2021/10/07 09:09:30;;;;;;;31.33;15.90;;;16.00;99.90;;;;;;5105602;28;20026;-74
2021/10/07 09:12:01;;;;;;;35.03;16.27;;;16.00;99.90;;;;;;5110636;28;20038;-74
2021/10/07 09:14:29;;;;;;;41.72;15.90;;;15.90;99.90;;;;;;5091924;28;20016;-74
2021/10/07 09:16:56;;;;;;;33.45;16.20;;;15.90;99.90;;;;;;5110785;28;20034;-74
2021/10/07 09:19:30;;;;;;;32.67;15.95;;;15.90;99.90;;;;;;5111625;28;20011;-74
2021/10/07 09:21:59;;;;;;;34.25;14.85;;;16.00;99.90;;;;;;5109626;28;20114;-74
2021/10/07 09:24:38;;;;;;;34.70;15.50;;;16.10;99.90;;;;;;5099856;28;20020;-74
2021/10/07 09:27:14;;;;;;;25.08;13.90;;;16.10;99.90;;;;;;5112146;28;20044;-74
2021/10/07 09:29:50;;;;;;;32.35;13.40;;;16.10;99.90;;;;;;5105102;28;20077;-73
2021/10/07 09:32:24;;;;;;;33.30;14.93;;;16.00;99.90;;;;;;5105920;28;20035;-74
2021/10/07 09:34:50;;;;;;;30.88;14.35;;;16.00;99.90;;;;;;5106130;28;20072;-74
2021/10/07 09:37:33;;;;;;;29.00;15.02;;;16.10;99.90;;;;;;5103269;28;20031;-74
2021/10/07 09:40:04;;;;;;;34.08;15.75;;;16.00;99.90;;;;;;5104583;28;20083;-73
2021/10/07 09:42:33;;;;;;;36.90;15.38;;;16.00;99.90;;;;;;5100875;28;20027;-75
2021/10/07 09:45:03;;;;;;;33.13;14.77;;;16.10;99.90;;;;;;5086598;28;20031;-73
2021/10/07 09:47:31;;;;;;;31.02;14.68;;;16.20;99.90;;;;;;5106408;27;20541;-76
2021/10/07 09:50:11;;;;;;;31.48;12.63;;;16.30;99.90;;;;;;5105136;28;20055;-75
2021/10/07 09:52:38;;;;;;;22.10;11.73;;;16.40;99.90;;;;;;5107529;28;20027;-76
2021/10/07 09:55:15;;;;;;;24.05;12.27;;;16.50;99.90;;;;;;5104684;28;20506;-75
2021/10/07 09:57:49;;;;;;;21.73;10.40;;;16.60;99.90;;;;;;5104101;27;20023;-75
2021/10/07 10:00:16;;;;;;;19.95;11.07;;;16.50;99.90;;;;;;5106402;28;20523;-76
2021/10/07 10:02:41;;;;;;;19.48;10.38;;;16.60;99.90;;;;;;5108860;28;20036;-75
2021/10/07 10:05:13;;;;;;;13.75;8.95;;;16.60;99.90;;;;;;5108086;28;20371;-76
2021/10/07 10:07:40;;;;;;;18.27;8.57;;;16.60;99.90;;;;;;5093729;28;20391;-75
2021/10/07 10:10:06;;;;;;;13.70;7.30;;;16.60;99.90;;;;;;5112235;28;20023;-77
2021/10/07 10:12:33;;;;;;;15.70;7.28;;;16.60;99.90;;;;;;5108580;28;20024;-77
2021/10/07 10:15:01;;;;;;;11.32;6.20;;;16.50;99.90;;;;;;5108750;28;20031;-77
2021/10/07 10:17:27;;;;;;;15.32;7.38;;;16.60;99.90;;;;;;5111761;28;20115;-77
2021/10/07 10:19:54;;;;;;;15.02;7.55;;;16.70;99.90;;;;;;5105000;28;20124;-77
2021/10/07 10:22:25;;;;;;;25.75;10.23;;;16.60;99.90;;;;;;5108329;28;20486;-78
2021/10/07 10:24:51;;;;;;;18.05;7.80;;;16.70;99.90;;;;;;5110973;28;20023;-78
2021/10/07 10:27:17;;;;;;;17.92;7.43;;;16.70;99.90;;;;;;5094723;28;20020;-78
2021/10/07 10:29:43;;;;;;;18.08;7.47;;;16.60;99.90;;;;;;5106799;28;20024;-77
2021/10/07 10:32:12;;;;;;;15.93;6.95;;;16.70;99.90;;;;;;5106615;28;20055;-77
2021/10/07 10:34:46;;;;;;;11.30;6.50;;;16.80;99.90;;;;;;5108280;28;20022;-77
2021/10/07 10:37:14;;;;;;;13.38;5.90;;;16.80;99.90;;;;;;5102348;28;20430;-77
2021/10/07 10:39:45;;;;;;;18.33;7.20;;;16.80;99.90;;;;;;5108707;28;20027;-77
2021/10/07 10:42:17;;;;;;;12.40;6.20;;;16.80;99.90;;;;;;5104660;28;20028;-78
2021/10/07 10:44:56;;;;;;;19.85;8.02;;;16.70;99.90;;;;;;5102908;28;20020;-78
2021/10/07 10:47:26;;;;;;;11.05;7.28;;;16.90;99.90;;;;;;5106038;28;20019;-77
2021/10/07 10:49:52;;;;;;;11.48;5.72;;;17.00;99.90;;;;;;5106961;28;20429;-79
2021/10/07 10:52:22;;;;;;;14.75;7.07;;;17.20;99.90;;;;;;5095283;28;20031;-78
2021/10/07 10:54:50;;;;;;;10.65;4.90;;;17.30;99.90;;;;;;5114842;28;20036;-80
2021/10/07 10:57:46;;;;;;;10.63;5.05;;;17.20;99.90;;;;;;5114935;28;20019;-75
2021/10/07 11:00:14;;;;;;;16.92;5.30;;;17.10;99.90;;;;;;5109446;27;20034;-74
2021/10/07 11:02:45;;;;;;;12.95;5.90;;;17.10;99.90;;;;;;5110737;28;20114;-74
2021/10/07 11:05:20;;;;;;;14.98;5.63;;;17.00;99.90;;;;;;5112534;28;20024;-74
2021/10/07 11:08:07;;;;;;;9.88;5.43;;;16.90;99.90;;;;;;5112330;28;20028;-74
2021/10/07 11:10:40;;;;;;;10.52;5.20;;;17.10;99.90;;;;;;5114252;28;20028;-74
2021/10/07 11:13:17;;;;;;;11.45;5.32;;;17.30;99.90;;;;;;5109466;28;20077;-73
2021/10/07 11:15:48;;;;;;;13.95;4.20;;;17.60;99.90;;;;;;5114184;28;20020;-75
2021/10/07 11:18:14;;;;;;;7.63;3.47;;;17.70;99.90;;;;;;5115645;28;20020;-73
2021/10/07 11:20:40;;;;;;;6.05;3.08;;;17.80;99.90;;;;;;5114940;28;20103;-74
2021/10/07 11:23:16;;;;;;;6.28;2.88;;;17.90;99.90;;;;;;5114583;28;20040;-73
2021/10/07 11:25:57;;;;;;;10.77;3.33;;;17.90;99.90;;;;;;5109068;28;20422;-74
2021/10/07 11:28:37;;;;;;;6.68;3.42;;;17.70;99.90;;;;;;5109269;27;20383;-73
2021/10/07 11:31:07;;;;;;;7.03;2.40;;;17.60;99.90;;;;;;5113155;28;20055;-74
2021/10/07 11:33:34;;;;;;;6.50;2.60;;;17.60;99.90;;;;;;5113376;28;20080;-74
2021/10/07 11:36:03;;;;;;;4.35;2.00;;;17.80;99.90;;;;;;5112564;28;20478;-74
2021/10/07 11:38:29;;;;;;;9.32;3.42;;;17.90;99.90;;;;;;5113586;28;20470;-74
2021/10/07 11:40:55;;;;;;;10.57;4.97;;;17.90;99.90;;;;;;5114205;28;20024;-74
2021/10/07 11:43:24;;;;;;;9.68;5.28;;;18.00;99.90;;;;;;5094908;28;20623;-75
2021/10/07 11:45:58;;;;;;;9.63;6.35;;;18.10;99.90;;;;;;5110286;28;20077;-76
2021/10/07 11:48:24;;;;;;;10.43;5.60;;;18.10;99.90;;;;;;5109719;28;20038;-74
2021/10/07 11:50:56;;;;;;;10.27;5.38;;;18.30;99.90;;;;;;5113291;28;20500;-75
2021/10/07 11:53:37;;;;;;;10.40;7.43;;;18.40;99.90;;;;;;5113772;28;20367;-74
2021/10/07 11:56:17;;;;;;;11.55;6.35;;;18.40;99.90;;;;;;5113485;28;20110;-73
2021/10/07 11:58:53;;;;;;;14.60;6.88;;;18.50;99.90;;;;;;5094138;28;20074;-74
2021/10/07 12:01:25;;;;;;;10.27;5.97;;;18.60;99.90;;;;;;5112091;28;20479;-74
2021/10/07 12:03:56;;;;;;;10.98;6.07;;;18.80;99.90;;;;;;5097203;28;20544;-74
2021/10/07 12:06:22;;;;;;;9.88;6.22;;;18.80;99.90;;;;;;5115533;28;20016;-74
2021/10/07 12:08:49;;;;;;;10.75;5.60;;;18.50;99.90;;;;;;5115228;28;20089;-74
2021/10/07 12:11:21;;;;;;;7.85;4.97;;;18.50;99.90;;;;;;5114328;28;20027;-74
2021/10/07 12:13:52;;;;;;;13.07;5.13;;;18.30;99.90;;;;;;5114886;28;20056;-74
2021/10/07 12:16:40;;;;;;;8.52;5.70;;;18.20;99.90;;;;;;5115646;28;20031;-74
2021/10/07 12:19:08;;;;;;;10.10;4.82;;;18.30;99.90;;;;;;5113581;28;20039;-74
2021/10/07 12:21:36;;;;;;;11.82;5.25;;;18.40;99.90;;;;;;5115137;28;20023;-74
2021/10/07 12:24:06;;;;;;;9.30;5.57;;;18.30;99.90;;;;;;5096498;28;20111;-74
2021/10/07 12:26:43;;;;;;;8.25;5.53;;;18.30;99.90;;;;;;5114331;28;20062;-75
2021/10/07 12:29:21;;;;;;;8.77;5.72;;;18.40;99.90;;;;;;5113577;28;20027;-74
2021/10/07 12:31:57;;;;;;;10.50;4.35;;;18.50;99.90;;;;;;5114504;28;20039;-74
2021/10/07 12:34:35;;;;;;;14.00;5.15;;;18.50;99.90;;;;;;5115128;28;20551;-74
2021/10/07 12:37:02;;;;;;;12.27;5.38;;;18.50;99.90;;;;;;5114917;28;20069;-74